Time;durP1;ratioP1;P1;durP2;ratioP2;P2;SDS_P1;SDS_P2;PMS_P1;PMS_P2;Temp;Humidity;BMP_temperature;BMP_pressure;BME280_temperature;BME280_humidity;BME280_pressure;Samples;Min_cycle;Max_cycle;Signal;HPM_P1;HPM_P2
2023/12/19 00:00:35;;;;;;;23.00;13.73;;;;;;;1.21;76.49;100621.53;4986631;28;20055;-93
2023/12/19 00:03:01;;;;;;;19.60;12.40;;;;;;;1.38;76.40;100617.75;4986398;28;20025;-94
2023/12/19 00:05:26;;;;;;;21.33;13.07;;;;;;;1.29;76.54;100599.44;5003234;28;20028;-94
2023/12/19 00:07:52;;;;;;;28.23;14.52;;;;;;;1.21;76.94;100617.03;4987239;28;20079;-93
2023/12/19 00:10:17;;;;;;;21.27;13.07;;;;;;;1.19;77.08;100631.50;5002428;28;20021;-94
2023/12/19 00:12:43;;;;;;;24.27;13.70;;;;;;;1.13;77.54;100645.47;4986259;28;20030;-94
2023/12/19 00:15:09;;;;;;;20.02;13.65;;;;;;;1.04;77.21;100620.81;4986579;28;20032;-94
2023/12/19 00:17:35;;;;;;;20.95;12.98;;;;;;;1.10;76.56;100619.28;4985876;28;20407;-94
2023/12/19 00:20:00;;;;;;;21.63;13.43;;;;;;;1.26;76.40;100623.66;4986389;28;20549;-94
2023/12/19 00:22:26;;;;;;;25.10;13.68;;;;;;;1.28;76.18;100626.94;4987416;28;20032;-95
2023/12/19 00:24:52;;;;;;;20.35;12.32;;;;;;;0.99;76.55;100605.41;4986772;28;20021;-95
2023/12/19 00:27:17;;;;;;;24.25;14.00;;;;;;;0.97;76.76;100623.31;5001500;28;20021;-93
2023/12/19 00:29:43;;;;;;;23.17;13.32;;;;;;;0.82;77.56;100654.25;4986289;28;20095;-94
2023/12/19 00:32:08;;;;;;;25.73;14.45;;;;;;;0.83;77.78;100639.16;5002542;28;20044;-95
2023/12/19 00:34:34;;;;;;;20.38;14.48;;;;;;;0.85;77.82;100631.84;5002677;28;20075;-93
2023/12/19 00:36:59;;;;;;;21.25;14.68;;;;;;;0.91;76.97;100615.25;5001616;28;20524;-95
2023/12/19 00:39:26;;;;;;;22.30;13.35;;;;;;;1.06;76.85;100620.63;5001891;28;20025;-93
2023/12/19 00:41:51;;;;;;;25.08;15.07;;;;;;;0.97;77.08;100603.94;5003218;28;20045;-94
2023/12/19 00:44:17;;;;;;;30.25;15.32;;;;;;;1.05;76.82;100595.13;5002714;28;20021;-94
2023/12/19 00:46:43;;;;;;;28.60;16.17;;;;;;;1.04;76.93;100599.59;4985693;28;20025;-94
2023/12/19 00:49:09;;;;;;;35.25;18.13;;;;;;;0.86;77.27;100597.22;4986336;28;20457;-92
2023/12/19 00:51:35;;;;;;;25.15;15.57;;;;;;;0.77;77.00;100601.75;5002360;28;20033;-93
2023/12/19 00:54:00;;;;;;;33.38;16.58;;;;;;;0.79;77.20;100601.56;4986317;28;20021;-93
2023/12/19 00:56:27;;;;;;;29.05;16.20;;;;;;;0.91;77.45;100610.75;4985700;28;20045;-93
2023/12/19 00:58:52;;;;;;;26.83;16.80;;;;;;;0.91;77.18;100589.53;5002663;28;20025;-92
2023/12/19 01:01:25;;;;;;;28.55;15.68;;;;;;;0.92;76.68;100591.22;5002108;28;20040;-92
2023/12/19 01:03:51;;;;;;;27.20;16.35;;;;;;;1.00;77.28;100617.69;4986105;28;20084;-94
2023/12/19 01:06:16;;;;;;;22.85;15.93;;;;;;;0.67;77.21;100593.19;5001933;28;20080;-94
2023/12/19 01:08:42;;;;;;;25.77;15.13;;;;;;;0.86;77.83;100623.72;5001587;28;20505;-94
2023/12/19 01:11:09;;;;;;;24.83;15.13;;;;;;;0.72;77.14;100605.91;4985872;28;20029;-93
2023/12/19 01:13:37;;;;;;;24.50;15.85;;;;;;;0.85;76.93;100619.44;5001956;28;20033;-95
2023/12/19 01:16:05;;;;;;;25.23;15.27;;;;;;;0.80;76.23;100596.06;4986391;28;20029;-94
2023/12/19 01:18:31;;;;;;;24.15;13.88;;;;;;;0.73;77.04;100607.56;5002593;28;20061;-94
2023/12/19 01:20:56;;;;;;;32.45;15.85;;;;;;;0.71;77.38;100628.94;5002103;28;20036;-94
2023/12/19 01:23:23;;;;;;;78.60;48.95;;;;;;;0.69;77.46;100615.03;5002698;28;20033;-95
2023/12/19 01:25:48;;;;;;;27.60;16.10;;;;;;;0.78;77.33;100621.94;5003776;28;20092;-95
2023/12/19 01:28:14;;;;;;;27.08;14.55;;;;;;;0.62;77.17;100592.03;4988327;28;20521;-96
2023/12/19 01:30:40;;;;;;;24.48;15.55;;;;;;;0.52;77.58;100582.50;4987744;28;20399;-96
2023/12/19 01:33:07;;;;;;;22.83;15.10;;;;;;;0.71;77.78;100612.22;5005010;28;20031;-96
2023/12/19 01:35:33;;;;;;;28.80;15.30;;;;;;;0.71;76.83;100614.88;4988591;28;20037;-96
2023/12/19 01:37:58;;;;;;;28.15;16.25;;;;;;;0.66;76.67;100586.22;5006114;28;20074;-96
2023/12/19 01:40:26;;;;;;;24.05;15.27;;;;;;;0.96;76.94;100616.38;5007554;28;20483;-95
2023/12/19 01:42:52;;;;;;;26.52;16.30;;;;;;;0.66;77.44;100596.00;5007669;28;20037;-96
2023/12/19 01:45:19;;;;;;;25.23;14.20;;;;;;;0.32;77.80;100568.81;4989252;28;20536;-91
2023/12/19 01:47:44;;;;;;;26.52;13.85;;;;;;;0.51;77.11;100590.59;5025223;28;20028;-91
2023/12/19 01:50:14;;;;;;;22.08;14.02;;;;;;;0.77;77.01;100603.56;5012688;28;20029;-91
2023/12/19 01:52:42;;;;;;;24.75;13.23;;;;;;;0.71;77.17;100577.75;5008885;28;20033;-91
2023/12/19 01:55:08;;;;;;;22.48;13.63;;;;;;;0.73;77.25;100575.75;5024239;28;20103;-92
2023/12/19 01:57:33;;;;;;;24.38;13.60;;;;;;;0.66;77.15;100574.78;5008245;28;20056;-91
2023/12/19 01:59:59;;;;;;;23.65;14.23;;;;;;;0.59;77.00;100572.84;5025545;28;20029;-92
2023/12/19 02:02:25;;;;;;;23.00;14.32;;;;;;;0.49;77.98;100560.81;5007029;28;20039;-91
2023/12/19 02:04:50;;;;;;;25.05;14.45;;;;;;;0.44;77.37;100544.63;5024321;28;20028;-91
2023/12/19 02:07:16;;;;;;;21.58;13.30;;;;;;;0.53;77.50;100573.53;5025483;28;20394;-91
2023/12/19 02:09:41;;;;;;;24.27;14.35;;;;;;;0.68;77.92;100586.88;5024701;28;20211;-91
2023/12/19 02:12:07;;;;;;;22.45;13.07;;;;;;;0.45;77.62;100557.66;5024961;28;20044;-91
2023/12/19 02:14:35;;;;;;;22.17;12.95;;;;;;;0.56;77.33;100575.00;5024026;28;20032;-90
2023/12/19 02:17:00;;;;;;;30.90;13.55;;;;;;;0.44;77.44;100565.81;5024851;28;20032;-90
2023/12/19 02:19:26;;;;;;;20.13;13.38;;;;;;;0.43;77.22;100566.78;5040246;28;20025;-91
2023/12/19 02:21:54;;;;;;;22.17;13.35;;;;;;;0.42;76.67;100550.06;5006961;28;20033;-92
2023/12/19 02:24:19;;;;;;;20.92;13.55;;;;;;;0.43;77.58;100548.25;5025858;28;20032;-90
2023/12/19 02:26:45;;;;;;;20.58;12.75;;;;;;;0.58;76.89;100562.41;5040056;28;20033;-92
2023/12/19 02:29:10;;;;;;;19.60;12.40;;;;;;;0.47;76.61;100544.25;5008288;28;20033;-91
2023/12/19 02:31:36;;;;;;;22.15;12.55;;;;;;;0.30;76.79;100527.63;5016509;28;20080;-92
2023/12/19 02:34:02;;;;;;;18.85;12.30;;;;;;;0.61;77.22;100572.66;5039459;28;20021;-92
2023/12/19 02:36:27;;;;;;;21.45;12.52;;;;;;;0.57;76.61;100550.97;5056768;28;20028;-92
2023/12/19 02:38:53;;;;;;;22.10;11.65;;;;;;;0.66;76.54;100543.00;5038631;28;20036;-91
2023/12/19 02:41:18;;;;;;;18.52;11.38;;;;;;;0.53;76.21;100536.44;5019710;28;20045;-92
2023/12/19 02:43:44;;;;;;;22.85;12.77;;;;;;;0.57;76.64;100553.63;5020124;28;20025;-91
2023/12/19 02:46:10;;;;;;;18.88;12.40;;;;;;;0.49;76.36;100537.78;5003315;28;20028;-91
2023/12/19 02:48:35;;;;;;;18.10;11.50;;;;;;;0.53;76.63;100541.72;5003149;28;20040;-92
2023/12/19 02:51:01;;;;;;;18.45;11.93;;;;;;;0.33;76.72;100530.75;5003397;28;20087;-91
2023/12/19 02:53:27;;;;;;;28.58;14.07;;;;;;;0.30;76.61;100543.50;4986530;28;20034;-92
2023/12/19 02:55:53;;;;;;;22.08;13.18;;;;;;;0.17;77.32;100539.59;5019405;28;20040;-92
2023/12/19 02:58:19;;;;;;;18.63;12.02;;;;;;;0.17;77.43;100547.53;5002697;28;20035;-91
2023/12/19 03:00:45;;;;;;;27.08;13.35;;;;;;;0.14;77.58;100554.97;5003791;28;20467;-91
2023/12/19 03:03:10;;;;;;;18.95;12.40;;;;;;;0.29;77.31;100570.97;4987695;28;20036;-91
2023/12/19 03:05:39;;;;;;;21.05;13.30;;;;;;;0.21;77.08;100529.47;5003100;28;20021;-92
2023/12/19 03:08:07;;;;;;;22.40;12.57;;;;;;;0.55;76.84;100566.22;5041898;28;20025;-96
2023/12/19 03:10:32;;;;;;;20.63;12.60;;;;;;;0.58;76.83;100555.28;5025373;28;20017;-96
2023/12/19 03:12:58;;;;;;;20.95;12.32;;;;;;;0.56;76.59;100536.09;5024238;28;20040;-96
2023/12/19 03:15:35;;;;;;;20.27;13.52;;;;;;;0.63;76.15;100538.88;5023996;28;20029;-95
2023/12/19 03:18:08;;;;;;;19.27;12.57;;;;;;;0.55;76.40;100520.38;5041128;28;20044;-95
2023/12/19 03:20:43;;;;;;;24.58;14.68;;;;;;;0.52;76.67;100520.69;5025096;28;20014;-96
2023/12/19 03:23:08;;;;;;;29.05;14.50;;;;;;;0.54;77.02;100531.94;5003560;28;20044;-93
2023/12/19 03:25:36;;;;;;;26.60;14.15;;;;;;;0.62;77.21;100552.28;5003095;28;20017;-93
2023/12/19 03:28:02;;;;;;;24.17;15.10;;;;;;;0.53;77.32;100548.84;5002534;28;20115;-92
2023/12/19 03:30:29;;;;;;;21.02;13.73;;;;;;;0.34;77.33;100521.78;5003309;28;20114;-93
2023/12/19 03:32:54;;;;;;;29.70;14.68;;;;;;;0.40;76.83;100533.53;5018458;28;20033;-93
2023/12/19 03:35:20;;;;;;;22.67;13.25;;;;;;;0.53;76.41;100541.72;4986687;28;20032;-92
2023/12/19 03:37:46;;;;;;;25.20;13.95;;;;;;;0.70;76.62;100539.00;5002763;28;20029;-93
2023/12/19 03:40:11;;;;;;;24.60;12.98;;;;;;;0.67;76.50;100528.75;5002734;28;20064;-93
2023/12/19 03:42:37;;;;;;;23.13;13.57;;;;;;;0.54;76.33;100518.69;5019796;28;20037;-94
2023/12/19 03:45:04;;;;;;;20.98;13.15;;;;;;;0.27;76.23;100486.41;5019010;28;20037;-95
2023/12/19 03:47:30;;;;;;;24.20;13.15;;;;;;;0.41;76.27;100516.63;5002737;28;20026;-94
2023/12/19 03:49:55;;;;;;;22.77;13.88;;;;;;;0.37;76.53;100526.75;5018494;28;20504;-93
2023/12/19 03:52:22;;;;;;;25.10;12.38;;;;;;;0.46;76.76;100539.94;5018791;28;20463;-94
2023/12/19 03:54:48;;;;;;;25.48;14.05;;;;;;;0.34;76.36;100527.09;5018517;28;20154;-92
2023/12/19 03:57:13;;;;;;;23.33;13.45;;;;;;;0.22;76.63;100520.53;5002767;28;20476;-91
2023/12/19 03:59:42;;;;;;;20.45;13.20;;;;;;;0.23;76.80;100516.03;5018805;28;20073;-91
2023/12/19 04:02:08;;;;;;;24.20;12.85;;;;;;;0.41;76.77;100537.81;5018028;28;20052;-91
2023/12/19 04:04:33;;;;;;;21.58;13.23;;;;;;;0.56;76.22;100544.03;5001825;28;20025;-91
2023/12/19 04:06:59;;;;;;;21.75;12.77;;;;;;;0.32;76.23;100520.31;5018167;28;20475;-92
2023/12/19 04:09:24;;;;;;;19.40;12.35;;;;;;;0.28;75.97;100537.56;5001916;28;20029;-91
2023/12/19 04:11:50;;;;;;;25.23;13.32;;;;;;;0.10;76.24;100516.59;5018551;28;20060;-90
2023/12/19 04:14:15;;;;;;;24.15;13.63;;;;;;;0.22;76.79;100544.34;5001445;28;20432;-93
2023/12/19 04:16:41;;;;;;;20.33;12.40;;;;;;;0.03;77.09;100510.34;5019204;28;20030;-93
2023/12/19 04:19:07;;;;;;;19.23;12.38;;;;;;;0.11;76.57;100510.31;5017545;28;20036;-92
2023/12/19 04:21:32;;;;;;;22.05;12.85;;;;;;;0.11;76.84;100516.44;5002218;28;20025;-92
2023/12/19 04:23:58;;;;;;;22.77;12.45;;;;;;;0.16;76.97;100519.38;5001669;28;20029;-93
2023/12/19 04:26:23;;;;;;;21.17;12.95;;;;;;;0.08;77.06;100515.94;5018069;28;20095;-92
2023/12/19 04:28:49;;;;;;;22.42;12.20;;;;;;;0.17;76.73;100528.16;5002169;28;20021;-93
2023/12/19 04:31:14;;;;;;;20.13;12.70;;;;;;;0.07;76.00;100496.59;5001170;28;20087;-92
2023/12/19 04:33:40;;;;;;;20.70;11.95;;;;;;;0.27;76.42;100525.28;5017832;28;20041;-93
2023/12/19 04:36:09;;;;;;;19.90;12.70;;;;;;;0.33;76.63;100514.00;5003021;28;20080;-92
2023/12/19 04:38:36;;;;;;;23.50;12.57;;;;;;;0.39;76.85;100530.06;5017377;28;20037;-91
2023/12/19 04:41:02;;;;;;;30.08;12.48;;;;;;;0.43;76.79;100541.13;5028996;28;20064;-92
2023/12/19 04:43:28;;;;;;;27.08;12.23;;;;;;;0.34;76.53;100503.25;5037651;28;20124;-92
2023/12/19 04:45:53;;;;;;;22.95;12.00;;;;;;;0.29;76.29;100494.16;5005546;28;20060;-94
2023/12/19 04:48:19;;;;;;;23.13;11.93;;;;;;;0.38;76.27;100520.44;5004655;28;20045;-93
2023/12/19 04:50:44;;;;;;;21.00;12.77;;;;;;;0.34;76.29;100529.75;5020792;28;20029;-93
2023/12/19 04:53:10;;;;;;;23.02;13.05;;;;;;;0.21;76.88;100513.59;5004873;28;20029;-94
2023/12/19 04:55:36;;;;;;;21.98;12.75;;;;;;;0.15;76.66;100530.16;5021883;28;20033;-93
2023/12/19 04:58:02;;;;;;;20.80;12.55;;;;;;;0.24;76.14;100536.25;5020773;28;20036;-93
2023/12/19 05:00:27;;;;;;;23.20;13.93;;;;;;;0.03;76.22;100513.00;5021545;28;20107;-94
2023/12/19 05:02:53;;;;;;;25.63;14.13;;;;;;;0.11;76.51;100529.69;5020880;28;20029;-93
2023/12/19 05:05:22;;;;;;;26.50;13.50;;;;;;;0.09;75.98;100520.25;5004858;28;20060;-93
2023/12/19 05:07:48;;;;;;;25.50;13.77;;;;;;;0.28;75.47;100540.22;5023119;28;20031;-94
2023/12/19 05:10:13;;;;;;;23.58;13.68;;;;;;;0.18;76.23;100541.22;5005260;28;20025;-92
2023/12/19 05:12:39;;;;;;;25.70;13.52;;;;;;;0.17;75.72;100538.75;5042107;28;20025;-93
2023/12/19 05:15:05;;;;;;;25.35;13.25;;;;;;;0.27;75.85;100546.47;5027063;28;20082;-93
2023/12/19 05:21:25;;;;;;;24.55;15.27;;;;;;;0.37;76.53;100565.66;5001044;28;20069;-96
2023/12/19 05:24:18;;;;;;;26.23;15.70;;;;;;;0.13;76.36;100545.41;4968717;28;20038;-93
2023/12/19 05:27:16;;;;;;;34.55;16.23;;;;;;;-0.01;75.89;100549.56;4953269;28;20146;-93
2023/12/19 05:29:42;;;;;;;30.73;15.30;;;;;;;0.08;76.62;100539.78;4983861;28;20061;-93
2023/12/19 05:32:12;;;;;;;27.85;15.52;;;;;;;0.11;75.85;100537.63;4952809;28;20055;-95
2023/12/19 05:34:37;;;;;;;26.92;15.32;;;;;;;0.22;76.32;100540.88;4967998;28;20049;-91
2023/12/19 05:37:03;;;;;;;26.60;15.27;;;;;;;0.19;75.70;100526.19;4967403;28;20038;-92
2023/12/19 05:39:30;;;;;;;34.95;15.77;;;;;;;0.27;76.01;100543.84;4951259;28;20026;-94
2023/12/19 05:41:56;;;;;;;33.00;18.13;;;;;;;0.27;76.46;100559.72;4949316;28;20054;-95
2023/12/19 05:44:24;;;;;;;42.65;20.50;;;;;;;0.15;76.26;100546.88;4970347;28;20033;-93
2023/12/19 05:46:51;;;;;;;25.98;14.65;;;;;;;0.16;76.22;100548.50;5025782;28;20087;-93
2023/12/19 05:49:18;;;;;;;30.73;15.38;;;;;;;0.31;75.87;100568.97;5025741;28;20043;-92
2023/12/19 05:51:44;;;;;;;22.25;15.32;;;;;;;0.10;75.38;100525.38;5009985;28;20399;-92
2023/12/19 05:54:10;;;;;;;41.78;18.55;;;;;;;0.20;75.97;100533.09;5024615;28;20039;-92
2023/12/19 05:56:35;;;;;;;29.33;17.33;;;;;;;0.40;75.71;100560.03;5010531;28;20028;-93
2023/12/19 05:59:01;;;;;;;29.40;17.67;;;;;;;0.29;75.84;100549.78;5008725;28;20136;-92
2023/12/19 06:01:26;;;;;;;34.85;17.10;;;;;;;0.50;75.16;100557.13;5009361;28;20422;-92
2023/12/19 06:03:53;;;;;;;31.08;17.67;;;;;;;0.39;75.82;100534.50;5009906;28;20130;-93
2023/12/19 06:06:19;;;;;;;33.13;19.10;;;;;;;0.39;75.03;100547.75;5011483;28;20144;-93
2023/12/19 06:08:44;;;;;;;34.95;18.27;;;;;;;0.15;75.79;100528.34;5025611;28;20064;-92
2023/12/19 06:14:12;;;;;;;;;;;;;;;0.55;76.23;100576.81;5032668;28;20047;-92
2023/12/19 06:27:40;;;;;;;34.13;18.98;;;;;;;0.71;75.13;100570.63;4967920;29;20527;-95
2023/12/19 06:30:10;;;;;;;31.05;18.50;;;;;;;0.58;75.64;100536.75;5019419;28;20037;-91
2023/12/19 06:33:05;;;;;;;34.38;18.95;;;;;;;0.46;75.48;100534.63;4995046;28;20085;-91
2023/12/19 06:35:30;;;;;;;34.17;16.30;;;;;;;0.74;75.88;100564.16;4999432;28;20025;-94
2023/12/19 06:38:21;;;;;;;39.33;20.30;;;;;;;0.70;75.72;100545.09;5006054;28;20035;-94
2023/12/19 06:40:50;;;;;;;42.95;19.58;;;;;;;0.63;75.81;100549.47;5028382;28;20065;-96
2023/12/19 06:43:19;;;;;;;38.78;20.30;;;;;;;0.93;75.64;100584.91;5021897;28;20033;-96
2023/12/19 06:45:49;;;;;;;45.92;24.98;;;;;;;0.72;76.53;100542.28;5016998;28;20037;-96
2023/12/19 06:48:23;;;;;;;41.38;23.05;;;;;;;0.75;75.64;100544.59;5049083;28;20041;-95
2023/12/19 06:50:58;;;;;;;44.53;23.52;;;;;;;1.11;74.78;100567.88;5016423;28;20033;-96
2023/12/19 06:54:27;;;;;;;;;;;;;;;;;;;;;
2023/12/19 06:59:51;;;;;;;48.17;25.42;;;;;;;1.63;73.66;100547.72;4939849;28;20070;-94
2023/12/19 07:02:56;;;;;;;;;;;;;;;;;;;;;
2023/12/19 07:05:36;;;;;;;37.67;25.10;;;;;;;2.09;73.30;100576.78;4971540;29;20071;-96
2023/12/19 07:08:02;;;;;;;47.75;26.98;;;;;;;2.18;73.13;100565.88;5005430;28;20064;-94
2023/12/19 07:10:50;;;;;;;38.40;21.85;;;;;;;2.20;72.59;100537.31;4995262;28;20510;-96
2023/12/19 07:13:23;;;;;;;47.15;24.60;;;;;;;2.21;72.91;100524.84;5032749;28;20029;-96
2023/12/19 07:15:59;;;;;;;63.58;34.38;;;;;;;2.32;72.51;100536.81;5019557;28;20053;-96
2023/12/19 07:19:04;;;;;;;;;;;;;;;;;;;;;
2023/12/19 07:21:54;;;;;;;49.60;25.02;;;;;;;2.16;72.42;100516.59;4928335;28;20087;-96
2023/12/19 07:27:39;;;;;;;46.42;25.48;;;;;;;2.43;71.81;100547.81;5085349;22;20060;-96
2023/12/19 07:30:33;;;;;;;47.75;25.10;;;;;;;2.41;71.35;100525.09;5038837;28;20041;-96
2023/12/19 07:33:01;;;;;;;40.22;24.05;;;;;;;2.49;72.14;100527.63;5036497;28;20040;-94
2023/12/19 07:35:34;;;;;;;57.03;28.65;;;;;;;2.91;71.67;100557.94;5024587;28;20089;-96
2023/12/19 07:38:00;;;;;;;59.47;26.15;;;;;;;3.01;71.49;100561.13;5024551;28;20120;-94
2023/12/19 07:40:26;;;;;;;44.95;25.70;;;;;;;2.97;71.42;100543.91;5024550;28;20088;-93
2023/12/19 07:42:53;;;;;;;49.25;25.83;;;;;;;3.06;70.82;100539.28;5008521;28;20028;-91
2023/12/19 07:45:23;;;;;;;40.08;25.50;;;;;;;3.32;70.37;100562.66;5011849;28;20104;-95
2023/12/19 07:54:21;;;;;;;37.63;21.85;;;;;;;3.31;69.99;100537.03;4988929;28;20053;-95
2023/12/19 07:57:52;;;;;;;;;;;;;;;;;;;;;
2023/12/19 08:03:11;;;;;;;33.08;20.13;;;;;;;3.56;69.20;100513.47;4947189;29;20071;-92
2023/12/19 08:05:39;;;;;;;35.20;20.92;;;;;;;3.77;69.36;100509.91;4945163;28;20035;-88
2023/12/19 08:08:08;;;;;;;59.28;31.73;;;;;;;4.00;69.67;100517.63;4973291;28;20054;-89
2023/12/19 08:11:22;;;;;;;;;;;;;;;;;;;;;
2023/12/19 08:13:52;;;;;;;31.27;17.10;;;;;;;4.22;67.30;100498.88;4932131;29;20637;-93
2023/12/19 08:16:18;;;;;;;36.25;20.35;;;;;;;4.32;66.96;100504.66;4948806;29;20039;-95
2023/12/19 08:19:30;;;;;;;;;;;;;;;;;;;;;
2023/12/19 08:22:19;;;;;;;31.92;19.60;;;;;;;4.27;67.58;100496.44;4918027;29;20100;-96
2023/12/19 08:24:50;;;;;;;35.83;21.95;;;;;;;4.80;66.89;100509.94;4919629;29;20063;-96
2023/12/19 08:27:16;;;;;;;32.10;19.47;;;;;;;5.84;64.42;100497.78;4942440;29;20524;-94
2023/12/19 08:29:48;;;;;;;29.65;18.73;;;;;;;6.59;62.24;100497.31;4929256;29;20445;-95
2023/12/19 08:32:14;;;;;;;29.37;16.13;;;;;;;6.68;61.04;100506.75;4907759;29;20114;-93
2023/12/19 08:34:43;;;;;;;25.90;14.50;;;;;;;6.48;60.74;100488.09;4946476;28;20038;-90
2023/12/19 08:37:11;;;;;;;24.10;15.57;;;;;;;6.51;61.13;100502.09;4982216;28;20035;-95
2023/12/19 08:40:08;;;;;;;28.42;16.20;;;;;;;6.55;61.48;100514.00;4970282;28;20030;-96
2023/12/19 08:42:40;;;;;;;27.05;20.05;;;;;;;6.15;62.81;100487.44;5009576;28;20037;-95
2023/12/19 08:50:56;;;;;;;27.60;16.13;;;;;;;6.02;63.98;100474.97;5140533;23;20154;-95
2023/12/19 08:58:43;;;;;;;84.07;48.85;;;;;;;6.33;62.81;100463.50;5008760;28;20054;-94
2023/12/19 09:01:17;;;;;;;56.78;32.58;;;;;;;6.29;63.04;100435.53;4948126;28;20100;-95
2023/12/19 09:03:46;;;;;;;30.85;18.70;;;;;;;6.46;63.43;100447.38;4975339;28;20037;-92
2023/12/19 09:06:13;;;;;;;25.52;17.23;;;;;;;6.54;63.11;100430.25;4964494;28;20038;-93
2023/12/19 09:08:46;;;;;;;25.90;16.98;;;;;;;6.73;62.49;100431.16;4974986;28;20027;-93
2023/12/19 09:11:18;;;;;;;22.70;14.02;;;;;;;6.99;62.33;100454.25;4974751;28;20043;-93
2023/12/19 09:13:52;;;;;;;22.50;14.23;;;;;;;7.08;61.13;100439.53;4931769;28;20066;-92
2023/12/19 09:16:18;;;;;;;28.02;13.68;;;;;;;7.12;61.58;100437.25;4956306;28;20049;-92
2023/12/19 09:18:53;;;;;;;22.50;12.77;;;;;;;7.14;61.05;100427.13;4978785;28;20030;-92
2023/12/19 09:21:18;;;;;;;19.05;13.48;;;;;;;7.20;60.82;100414.69;4967194;28;20057;-90
2023/12/19 09:24:16;;;;;;;22.00;13.85;;;;;;;7.22;61.20;100407.25;4984974;28;20022;-91
2023/12/19 09:26:41;;;;;;;25.63;14.57;;;;;;;7.35;60.84;100407.13;5000736;28;20037;-91
2023/12/19 09:29:07;;;;;;;30.13;14.13;;;;;;;7.31;60.83;100389.06;4964157;28;20027;-91
2023/12/19 09:31:32;;;;;;;28.63;16.83;;;;;;;7.62;60.96;100421.06;4947535;28;20132;-90
2023/12/19 09:33:58;;;;;;;24.00;15.45;;;;;;;7.47;60.79;100389.28;4965587;28;20106;-91
2023/12/19 09:36:34;;;;;;;28.50;16.48;;;;;;;7.66;59.93;100382.06;4957351;28;20413;-91
2023/12/19 09:39:03;;;;;;;26.40;16.98;;;;;;;7.73;59.67;100381.97;4955477;28;20030;-88
2023/12/19 09:41:31;;;;;;;38.70;23.20;;;;;;;7.92;59.82;100400.72;4965512;28;20038;-91
2023/12/19 09:43:59;;;;;;;29.77;18.15;;;;;;;7.90;58.92;100382.19;4953305;28;20027;-93
2023/12/19 09:46:24;;;;;;;28.63;16.52;;;;;;;7.92;58.66;100382.78;4928505;28;20105;-93
2023/12/19 09:48:50;;;;;;;24.30;13.93;;;;;;;7.99;58.10;100374.63;4929885;28;20141;-92
2023/12/19 09:51:42;;;;;;;23.23;14.25;;;;;;;7.91;57.62;100351.66;4947665;28;20022;-91
2023/12/19 09:54:13;;;;;;;22.02;13.68;;;;;;;8.03;57.75;100362.41;4992588;28;20050;-93
2023/12/19 09:57:05;;;;;;;22.60;12.27;;;;;;;7.98;57.46;100340.84;4966610;28;20045;-95
2023/12/19 09:59:30;;;;;;;;;;;;;;;8.27;57.13;100372.19;4963171;28;20154;-94
2023/12/19 10:02:04;;;;;;;22.60;11.55;;;;;;;8.22;56.55;100341.75;4980081;28;19922;-91
2023/12/19 10:04:51;;;;;;;19.15;10.82;;;;;;;8.29;56.38;100337.91;4939565;29;20090;-96
2023/12/19 10:07:20;;;;;;;24.92;14.35;;;;;;;8.32;56.45;100335.81;4972118;28;20094;-94
2023/12/19 10:09:54;;;;;;;30.45;17.17;;;;;;;8.56;56.78;100348.25;4945682;28;20031;-94
2023/12/19 10:12:20;;;;;;;32.03;20.48;;;;;;;8.61;57.41;100353.75;4967647;28;20035;-93
2023/12/19 10:14:48;;;;;;;43.83;20.98;;;;;;;8.50;57.84;100317.78;4966245;28;20034;-94
2023/12/19 10:17:15;;;;;;;32.72;19.33;;;;;;;8.78;57.45;100345.84;4966658;28;20019;-93
2023/12/19 10:19:42;;;;;;;20.15;12.10;;;;;;;8.70;56.86;100314.78;4957515;29;20047;-93
2023/12/19 10:22:12;;;;;;;24.27;12.68;;;;;;;8.87;56.62;100332.88;4940164;29;20170;-93
2023/12/19 10:24:44;;;;;;;19.05;12.52;;;;;;;8.98;55.91;100336.59;4956124;28;20038;-92
2023/12/19 10:27:10;;;;;;;;;;;;;;;9.06;55.72;100330.88;4957303;29;20031;-93
2023/12/19 10:29:42;;;;;;;21.17;10.23;;;;;;;8.87;54.84;100293.41;4971493;29;19950;-91
2023/12/19 10:35:44;;;;;;;28.35;14.52;;;;;;;9.25;55.66;100297.44;4954782;29;20039;-93
2023/12/19 10:38:10;;;;;;;;;;;;;;;9.45;55.64;100312.38;4926051;29;20062;-91
2023/12/19 10:40:36;;;;;;;23.70;14.07;;;;;;;9.45;55.36;100318.56;4940918;29;19922;-91
2023/12/19 10:43:02;;;;;;;21.17;13.68;;;;;;;9.32;55.65;100283.91;4954220;29;20062;-92
2023/12/19 10:45:33;;;;;;;24.35;14.23;;;;;;;9.50;55.16;100288.25;4935068;28;20030;-93
2023/12/19 10:47:59;;;;;;;20.05;12.52;;;;;;;9.51;55.10;100281.84;4940014;28;20039;-90
2023/12/19 10:50:27;;;;;;;20.65;13.68;;;;;;;9.58;54.85;100276.31;4934903;29;20044;-92
2023/12/19 10:52:52;;;;;;;23.92;13.90;;;;;;;9.70;54.64;100264.47;4934855;29;20027;-92
2023/12/19 10:55:21;;;;;;;21.35;12.60;;;;;;;9.75;54.11;100257.53;4926250;29;20035;-94
2023/12/19 10:57:49;;;;;;;21.70;12.63;;;;;;;10.03;53.39;100291.69;4939783;28;20046;-93
2023/12/19 11:00:22;;;;;;;30.00;11.88;;;;;;;10.02;52.65;100272.03;4947304;28;20042;-92
2023/12/19 11:03:37;;;;;;;19.60;15.15;;;;;;;10.01;53.03;100246.19;4945200;28;20042;-93
2023/12/19 11:06:15;;;;;;;21.95;12.52;;;;;;;10.33;52.81;100277.94;4981563;28;20497;-93
2023/12/19 11:08:41;;;;;;;20.00;11.68;;;;;;;10.18;52.24;100234.63;4984536;28;20033;-92
2023/12/19 11:11:35;;;;;;;;;;;;;;;;;;;;;
2023/12/19 11:14:26;;;;;;;23.45;13.00;;;;;;;10.49;52.61;100258.28;4973861;28;20105;-95
2023/12/19 11:17:11;;;;;;;18.60;10.70;;;;;;;10.55;52.11;100259.19;4973615;28;20038;-95
2023/12/19 11:20:15;;;;;;;22.95;11.90;;;;;;;10.44;51.67;100217.03;4986690;28;20050;-96
2023/12/19 11:26:39;;;;;;;;;;;;;;;10.70;51.82;100247.81;4920980;28;20029;-93
2023/12/19 11:29:05;;;;;;;19.88;11.80;;;;;;;10.66;51.46;100225.13;4998653;28;19909;-93
2023/12/19 11:31:35;;;;;;;22.80;9.77;;;;;;;10.69;51.18;100230.03;4951477;28;20080;-93
2023/12/19 11:34:25;;;;;;;21.13;10.32;;;;;;;10.87;51.20;100242.41;4966447;28;20034;-92
2023/12/19 11:37:06;;;;;;;28.05;13.30;;;;;;;10.76;51.79;100216.41;4947470;28;20045;-94
2023/12/19 11:39:34;;;;;;;20.75;11.48;;;;;;;10.77;51.50;100213.47;4951992;28;20481;-93
2023/12/19 11:42:00;;;;;;;27.88;12.50;;;;;;;10.78;51.57;100192.72;4970200;28;20034;-93
2023/12/19 11:44:38;;;;;;;23.30;11.30;;;;;;;10.94;51.64;100212.59;4965980;28;20125;-94
2023/12/19 11:47:17;;;;;;;21.48;10.18;;;;;;;10.86;50.98;100193.09;4947397;28;20084;-93
2023/12/19 11:49:45;;;;;;;22.63;10.13;;;;;;;10.95;51.01;100196.16;4951476;28;20061;-95
2023/12/19 11:52:36;;;;;;;19.48;8.63;;;;;;;11.16;50.23;100210.69;4953029;28;20042;-95
2023/12/19 11:55:45;;;;;;;17.85;9.40;;;;;;;11.27;50.27;100208.94;4981210;28;20094;-94
2023/12/19 11:58:26;;;;;;;30.42;11.40;;;;;;;11.14;50.26;100177.78;4994904;28;20050;-92
2023/12/19 12:00:58;;;;;;;19.70;9.73;;;;;;;11.22;49.62;100166.56;4962204;28;20481;-92
2023/12/19 12:03:24;;;;;;;23.35;10.85;;;;;;;11.23;50.03;100162.00;4946499;28;20053;-92
2023/12/19 12:05:50;;;;;;;20.10;10.70;;;;;;;11.19;50.72;100158.19;4962271;28;20019;-93
2023/12/19 12:08:16;;;;;;;21.67;12.77;;;;;;;11.33;50.20;100176.41;4960744;28;20034;-94
2023/12/19 12:10:43;;;;;;;16.13;8.88;;;;;;;11.23;50.22;100145.81;4961196;28;20027;-95
2023/12/19 12:13:24;;;;;;;19.33;9.85;;;;;;;11.26;50.03;100146.09;4963493;28;20030;-93
2023/12/19 12:19:29;;;;;;;20.48;9.10;;;;;;;11.59;48.72;100156.97;4978839;28;20482;-94
2023/12/19 12:22:00;;;;;;;15.73;9.43;;;;;;;11.55;49.99;100153.13;4965897;28;20093;-92
2023/12/19 12:24:31;;;;;;;20.15;8.40;;;;;;;11.59;49.38;100151.56;4963459;28;20030;-94
2023/12/19 12:27:38;;;;;;;18.38;9.18;;;;;;;11.63;49.34;100155.38;4962685;28;20030;-94
2023/12/19 12:30:09;;;;;;;25.25;9.05;;;;;;;11.55;49.58;100145.84;4980213;28;20114;-94
2023/12/19 12:32:40;;;;;;;24.42;9.30;;;;;;;11.64;49.76;100155.13;4945467;28;20026;-94
2023/12/19 12:35:39;;;;;;;17.08;8.13;;;;;;;11.78;49.76;100166.28;4961706;28;20129;-95
2023/12/19 12:41:00;;;;;;;24.67;9.90;;;;;;;11.67;50.57;100159.19;4974460;28;20184;-91